SBOSBO AYT / LTAI
Speedbird OnlineSpeedbird Online AYT / LTAI

Antalya International Airport
03:51 10.6°C

Location Antalya, Turkey
Latitude: 36.898701
Longitude: 30.800501
Local Time 03:51 on 28 Feb 2024
UTC +3 hours (Europe/Istanbul)
Currency £1 equals TRY 39.52
METAR LTAI 280020Z 33005KT CAVOK 10/10 Q1021 NOSIG RMK RWY18C 33004KT RWY36R /////KT RWY18L 34003KT 310V020
TAF TAF LTAI 272240Z 2800/2824 34006KT CAVOK PROB30 2803/2806 2000 BR SCT020 BECMG 2806/2810 18010KT FEW030 BECMG 2815/2818 34006KT PROB40 2818/2822 4000 BR
Weather As Of 28 Feb 2024 03:49
Description Clear sky
Wind 9 km/h from North-West (330°)
Cloud Cover 0%
Precipitation Rain: none, Snow: none
Sunrise 07:30
Sunset 18:49
NOTAM 6 active NOTAM
Lounges CIP Lounge, T1 International Terminal, 3 floo
Web Airport Website | Wikipedia
Codes IATA: AYT
ICAO: LTAI
Altitude 54 Meter / 177 Feet
Distance 2,902 KM / 1,803 Miles
from London.
Runways
RunwayLength (m)Surface
18C3400concrete
18L3400Concrete
18R2990concrete
36C3400concrete
36L2990concrete
36R3400Concrete
Radio
TypeDescriptionFrequency
APPupper122.05
ATISATIS118.275
Approacharrival119.65
CLDCLNC DEL123.175
GNDGND121.9
HAVASHandling Services131.45
TWRTWR east125
TWRTWR west126.1
Live ATC



Support Speedbird Online

© 2017-2024 Speedbird Online